sensor_id;sensor_type;location;lat;lon;timestamp;P1;durP1;ratioP1;P2;durP2;ratioP2
76023;SDS011;64719;52.124;6.226;2023-02-21T00:00:51;51.83;;;20.90;;
76023;SDS011;64719;52.124;6.226;2023-02-21T00:03:35;48.67;;;20.00;;
76023;SDS011;64719;52.124;6.226;2023-02-21T00:06:19;53.75;;;21.42;;
76023;SDS011;64719;52.124;6.226;2023-02-21T00:09:03;49.47;;;22.13;;
76023;SDS011;64719;52.124;6.226;2023-02-21T00:11:48;60.08;;;23.33;;
76023;SDS011;64719;52.124;6.226;2023-02-21T00:14:33;46.65;;;20.83;;
76023;SDS011;64719;52.124;6.226;2023-02-21T00:17:18;56.33;;;22.13;;
76023;SDS011;64719;52.124;6.226;2023-02-21T00:20:03;52.75;;;21.90;;
76023;SDS011;64719;52.124;6.226;2023-02-21T00:22:47;52.08;;;20.35;;
76023;SDS011;64719;52.124;6.226;2023-02-21T00:25:31;53.85;;;21.48;;
76023;SDS011;64719;52.124;6.226;2023-02-21T00:28:16;52.03;;;22.15;;
76023;SDS011;64719;52.124;6.226;2023-02-21T00:31:00;51.63;;;21.02;;
76023;SDS011;64719;52.124;6.226;2023-02-21T00:33:43;52.88;;;20.98;;
76023;SDS011;64719;52.124;6.226;2023-02-21T00:36:28;57.97;;;21.83;;
76023;SDS011;64719;52.124;6.226;2023-02-21T00:39:12;51.10;;;21.83;;
76023;SDS011;64719;52.124;6.226;2023-02-21T00:41:56;58.58;;;21.33;;
76023;SDS011;64719;52.124;6.226;2023-02-21T00:44:41;52.20;;;21.20;;
76023;SDS011;64719;52.124;6.226;2023-02-21T00:47:25;49.50;;;21.45;;
76023;SDS011;64719;52.124;6.226;2023-02-21T00:50:09;56.70;;;21.17;;
76023;SDS011;64719;52.124;6.226;2023-02-21T00:52:53;57.33;;;23.10;;
76023;SDS011;64719;52.124;6.226;2023-02-21T00:55:37;53.00;;;21.40;;
76023;SDS011;64719;52.124;6.226;2023-02-21T00:58:21;51.47;;;21.08;;
76023;SDS011;64719;52.124;6.226;2023-02-21T01:01:07;52.10;;;22.15;;
76023;SDS011;64719;52.124;6.226;2023-02-21T01:03:50;52.75;;;21.67;;
76023;SDS011;64719;52.124;6.226;2023-02-21T01:06:34;48.88;;;21.02;;
76023;SDS011;64719;52.124;6.226;2023-02-21T01:09:18;55.47;;;21.08;;
76023;SDS011;64719;52.124;6.226;2023-02-21T01:12:02;50.58;;;20.95;;
76023;SDS011;64719;52.124;6.226;2023-02-21T01:14:47;53.38;;;21.50;;
76023;SDS011;64719;52.124;6.226;2023-02-21T01:17:32;55.33;;;21.83;;
76023;SDS011;64719;52.124;6.226;2023-02-21T01:20:16;52.03;;;20.95;;
76023;SDS011;64719;52.124;6.226;2023-02-21T01:23:00;54.20;;;20.92;;
76023;SDS011;64719;52.124;6.226;2023-02-21T01:25:44;56.50;;;21.60;;
76023;SDS011;64719;52.124;6.226;2023-02-21T01:28:28;49.58;;;22.10;;
76023;SDS011;64719;52.124;6.226;2023-02-21T01:31:15;56.35;;;21.75;;
76023;SDS011;64719;52.124;6.226;2023-02-21T01:34:01;55.15;;;23.13;;
76023;SDS011;64719;52.124;6.226;2023-02-21T01:36:45;59.78;;;23.10;;
76023;SDS011;64719;52.124;6.226;2023-02-21T01:39:29;55.38;;;22.52;;
76023;SDS011;64719;52.124;6.226;2023-02-21T01:42:13;53.80;;;22.35;;
76023;SDS011;64719;52.124;6.226;2023-02-21T01:45:28;63.88;;;23.45;;
76023;SDS011;64719;52.124;6.226;2023-02-21T01:48:24;60.25;;;21.05;;
76023;SDS011;64719;52.124;6.226;2023-02-21T01:51:11;58.15;;;22.60;;
76023;SDS011;64719;52.124;6.226;2023-02-21T01:53:59;56.42;;;21.20;;
76023;SDS011;64719;52.124;6.226;2023-02-21T01:56:43;56.58;;;21.95;;
76023;SDS011;64719;52.124;6.226;2023-02-21T01:59:27;57.95;;;22.02;;
76023;SDS011;64719;52.124;6.226;2023-02-21T02:02:12;53.22;;;21.23;;
76023;SDS011;64719;52.124;6.226;2023-02-21T02:05:01;57.28;;;22.90;;
76023;SDS011;64719;52.124;6.226;2023-02-21T02:07:48;55.15;;;21.38;;
76023;SDS011;64719;52.124;6.226;2023-02-21T02:10:33;57.35;;;21.92;;
76023;SDS011;64719;52.124;6.226;2023-02-21T02:13:25;56.35;;;21.23;;
76023;SDS011;64719;52.124;6.226;2023-02-21T02:16:05;56.95;;;20.38;;
76023;SDS011;64719;52.124;6.226;2023-02-21T02:18:41;60.13;;;21.77;;
76023;SDS011;64719;52.124;6.226;2023-02-21T02:24:31;56.92;;;20.63;;
76023;SDS011;64719;52.124;6.226;2023-02-21T02:27:35;55.92;;;20.63;;
76023;SDS011;64719;52.124;6.226;2023-02-21T02:36:21;55.88;;;21.60;;
76023;SDS011;64719;52.124;6.226;2023-02-21T02:38:54;57.28;;;20.50;;
76023;SDS011;64719;52.124;6.226;2023-02-21T02:41:27;54.13;;;20.88;;
76023;SDS011;64719;52.124;6.226;2023-02-21T02:44:03;55.28;;;21.15;;
76023;SDS011;64719;52.124;6.226;2023-02-21T02:46:36;52.22;;;19.25;;
76023;SDS011;64719;52.124;6.226;2023-02-21T02:49:06;51.83;;;19.45;;
76023;SDS011;64719;52.124;6.226;2023-02-21T02:51:39;53.10;;;20.13;;
76023;SDS011;64719;52.124;6.226;2023-02-21T02:54:05;53.55;;;19.67;;
76023;SDS011;64719;52.124;6.226;2023-02-21T02:56:32;48.83;;;19.15;;
76023;SDS011;64719;52.124;6.226;2023-02-21T03:01:39;54.90;;;19.90;;
76023;SDS011;64719;52.124;6.226;2023-02-21T03:04:25;51.50;;;20.50;;
76023;SDS011;64719;52.124;6.226;2023-02-21T03:07:09;52.08;;;19.77;;
76023;SDS011;64719;52.124;6.226;2023-02-21T03:09:47;55.28;;;21.02;;
76023;SDS011;64719;52.124;6.226;2023-02-21T03:12:21;52.13;;;19.02;;
76023;SDS011;64719;52.124;6.226;2023-02-21T03:14:58;49.15;;;19.63;;
76023;SDS011;64719;52.124;6.226;2023-02-21T03:17:28;51.38;;;18.75;;
76023;SDS011;64719;52.124;6.226;2023-02-21T03:20:00;56.40;;;20.13;;
76023;SDS011;64719;52.124;6.226;2023-02-21T03:22:31;49.42;;;18.58;;
76023;SDS011;64719;52.124;6.226;2023-02-21T03:24:59;51.60;;;19.13;;
76023;SDS011;64719;52.124;6.226;2023-02-21T03:27:29;54.33;;;19.38;;
76023;SDS011;64719;52.124;6.226;2023-02-21T03:29:57;47.15;;;18.17;;
76023;SDS011;64719;52.124;6.226;2023-02-21T03:32:27;53.45;;;18.98;;
76023;SDS011;64719;52.124;6.226;2023-02-21T03:34:55;52.40;;;20.95;;
76023;SDS011;64719;52.124;6.226;2023-02-21T03:37:28;53.83;;;19.45;;
76023;SDS011;64719;52.124;6.226;2023-02-21T03:39:57;59.42;;;20.63;;
76023;SDS011;64719;52.124;6.226;2023-02-21T03:42:25;55.33;;;18.65;;
76023;SDS011;64719;52.124;6.226;2023-02-21T03:44:51;56.58;;;21.52;;
76023;SDS011;64719;52.124;6.226;2023-02-21T03:47:18;57.22;;;20.15;;
76023;SDS011;64719;52.124;6.226;2023-02-21T03:49:44;52.08;;;20.40;;
76023;SDS011;64719;52.124;6.226;2023-02-21T03:52:11;54.80;;;20.65;;
76023;SDS011;64719;52.124;6.226;2023-02-21T03:54:38;63.95;;;21.70;;
76023;SDS011;64719;52.124;6.226;2023-02-21T03:57:06;61.92;;;21.13;;
76023;SDS011;64719;52.124;6.226;2023-02-21T03:59:33;64.63;;;21.35;;
76023;SDS011;64719;52.124;6.226;2023-02-21T04:02:00;61.97;;;20.52;;
76023;SDS011;64719;52.124;6.226;2023-02-21T04:04:26;54.83;;;19.25;;
76023;SDS011;64719;52.124;6.226;2023-02-21T04:06:53;62.22;;;20.60;;
76023;SDS011;64719;52.124;6.226;2023-02-21T04:09:19;57.03;;;18.88;;
76023;SDS011;64719;52.124;6.226;2023-02-21T04:11:47;69.20;;;21.25;;
76023;SDS011;64719;52.124;6.226;2023-02-21T04:14:15;57.22;;;19.05;;
76023;SDS011;64719;52.124;6.226;2023-02-21T04:16:41;58.60;;;20.00;;
76023;SDS011;64719;52.124;6.226;2023-02-21T04:19:08;70.38;;;20.33;;
76023;SDS011;64719;52.124;6.226;2023-02-21T04:21:35;68.28;;;21.70;;
76023;SDS011;64719;52.124;6.226;2023-02-21T04:24:02;60.92;;;19.23;;
76023;SDS011;64719;52.124;6.226;2023-02-21T04:26:28;63.53;;;19.85;;
76023;SDS011;64719;52.124;6.226;2023-02-21T04:28:55;67.18;;;21.25;;
76023;SDS011;64719;52.124;6.226;2023-02-21T04:31:23;64.35;;;20.52;;
76023;SDS011;64719;52.124;6.226;2023-02-21T04:33:50;69.00;;;20.63;;
76023;SDS011;64719;52.124;6.226;2023-02-21T04:36:16;61.75;;;21.65;;
76023;SDS011;64719;52.124;6.226;2023-02-21T04:38:43;67.82;;;21.60;;
76023;SDS011;64719;52.124;6.226;2023-02-21T04:41:10;63.50;;;21.42;;
76023;SDS011;64719;52.124;6.226;2023-02-21T04:43:36;70.28;;;22.10;;
76023;SDS011;64719;52.124;6.226;2023-02-21T04:46:03;63.60;;;20.77;;
76023;SDS011;64719;52.124;6.226;2023-02-21T04:48:31;63.40;;;20.58;;
76023;SDS011;64719;52.124;6.226;2023-02-21T04:50:58;59.15;;;18.38;;
76023;SDS011;64719;52.124;6.226;2023-02-21T04:53:24;61.10;;;21.10;;
76023;SDS011;64719;52.124;6.226;2023-02-21T04:55:51;63.40;;;21.67;;
76023;SDS011;64719;52.124;6.226;2023-02-21T04:58:17;65.35;;;21.00;;
76023;SDS011;64719;52.124;6.226;2023-02-21T05:00:44;71.47;;;21.02;;
76023;SDS011;64719;52.124;6.226;2023-02-21T05:03:10;64.10;;;21.05;;
76023;SDS011;64719;52.124;6.226;2023-02-21T05:05:38;61.92;;;19.48;;
76023;SDS011;64719;52.124;6.226;2023-02-21T05:08:05;62.20;;;22.65;;
76023;SDS011;64719;52.124;6.226;2023-02-21T05:10:31;67.97;;;21.85;;
76023;SDS011;64719;52.124;6.226;2023-02-21T05:12:58;62.25;;;21.55;;
76023;SDS011;64719;52.124;6.226;2023-02-21T05:15:24;66.10;;;21.10;;
76023;SDS011;64719;52.124;6.226;2023-02-21T05:17:51;66.57;;;22.05;;
76023;SDS011;64719;52.124;6.226;2023-02-21T05:20:18;69.45;;;23.73;;
76023;SDS011;64719;52.124;6.226;2023-02-21T05:22:46;72.57;;;24.02;;
76023;SDS011;64719;52.124;6.226;2023-02-21T05:25:14;70.20;;;21.05;;
76023;SDS011;64719;52.124;6.226;2023-02-21T05:27:41;61.05;;;21.60;;
76023;SDS011;64719;52.124;6.226;2023-02-21T05:30:08;71.03;;;20.40;;
76023;SDS011;64719;52.124;6.226;2023-02-21T05:32:36;67.95;;;21.95;;
76023;SDS011;64719;52.124;6.226;2023-02-21T05:35:02;62.83;;;21.88;;
76023;SDS011;64719;52.124;6.226;2023-02-21T05:37:29;71.63;;;22.40;;
76023;SDS011;64719;52.124;6.226;2023-02-21T05:39:57;68.35;;;21.05;;
76023;SDS011;64719;52.124;6.226;2023-02-21T05:42:24;68.53;;;21.33;;
76023;SDS011;64719;52.124;6.226;2023-02-21T05:44:51;74.90;;;21.70;;
76023;SDS011;64719;52.124;6.226;2023-02-21T05:47:17;69.57;;;21.98;;
76023;SDS011;64719;52.124;6.226;2023-02-21T05:49:44;73.78;;;23.45;;
76023;SDS011;64719;52.124;6.226;2023-02-21T05:52:11;75.32;;;23.83;;
76023;SDS011;64719;52.124;6.226;2023-02-21T05:54:39;71.70;;;22.08;;
76023;SDS011;64719;52.124;6.226;2023-02-21T05:57:07;75.57;;;22.05;;
76023;SDS011;64719;52.124;6.226;2023-02-21T05:59:34;78.53;;;22.65;;
76023;SDS011;64719;52.124;6.226;2023-02-21T06:02:03;72.47;;;23.33;;
76023;SDS011;64719;52.124;6.226;2023-02-21T06:04:30;71.57;;;21.75;;
76023;SDS011;64719;52.124;6.226;2023-02-21T06:06:56;75.47;;;22.33;;
76023;SDS011;64719;52.124;6.226;2023-02-21T06:09:23;72.75;;;23.17;;
76023;SDS011;64719;52.124;6.226;2023-02-21T06:11:49;75.18;;;21.85;;
76023;SDS011;64719;52.124;6.226;2023-02-21T06:14:18;78.63;;;22.85;;
76023;SDS011;64719;52.124;6.226;2023-02-21T06:16:46;78.93;;;24.30;;
76023;SDS011;64719;52.124;6.226;2023-02-21T06:19:13;85.57;;;25.70;;
76023;SDS011;64719;52.124;6.226;2023-02-21T06:21:41;83.50;;;25.92;;
76023;SDS011;64719;52.124;6.226;2023-02-21T06:24:08;76.18;;;23.20;;
76023;SDS011;64719;52.124;6.226;2023-02-21T06:26:35;88.70;;;24.30;;
76023;SDS011;64719;52.124;6.226;2023-02-21T06:29:02;85.43;;;25.45;;
76023;SDS011;64719;52.124;6.226;2023-02-21T06:31:30;83.00;;;24.17;;
76023;SDS011;64719;52.124;6.226;2023-02-21T06:33:57;87.55;;;26.23;;
76023;SDS011;64719;52.124;6.226;2023-02-21T06:36:25;76.53;;;21.95;;
76023;SDS011;64719;52.124;6.226;2023-02-21T06:38:54;89.65;;;25.52;;
76023;SDS011;64719;52.124;6.226;2023-02-21T06:41:22;80.03;;;23.85;;
76023;SDS011;64719;52.124;6.226;2023-02-21T06:43:51;87.18;;;26.27;;
76023;SDS011;64719;52.124;6.226;2023-02-21T06:46:18;89.53;;;25.48;;
76023;SDS011;64719;52.124;6.226;2023-02-21T06:48:48;91.13;;;24.38;;
76023;SDS011;64719;52.124;6.226;2023-02-21T06:58:35;91.35;;;25.92;;
76023;SDS011;64719;52.124;6.226;2023-02-21T07:01:02;91.22;;;26.15;;
76023;SDS011;64719;52.124;6.226;2023-02-21T07:03:29;92.97;;;25.30;;
76023;SDS011;64719;52.124;6.226;2023-02-21T07:05:56;98.05;;;24.48;;
76023;SDS011;64719;52.124;6.226;2023-02-21T07:08:23;99.35;;;26.40;;
76023;SDS011;64719;52.124;6.226;2023-02-21T07:10:50;92.38;;;25.83;;
76023;SDS011;64719;52.124;6.226;2023-02-21T07:13:17;91.35;;;24.50;;
76023;SDS011;64719;52.124;6.226;2023-02-21T07:15:43;95.18;;;25.27;;
76023;SDS011;64719;52.124;6.226;2023-02-21T07:18:11;93.38;;;24.45;;
76023;SDS011;64719;52.124;6.226;2023-02-21T07:20:38;93.88;;;24.67;;
76023;SDS011;64719;52.124;6.226;2023-02-21T07:23:06;99.15;;;24.73;;
76023;SDS011;64719;52.124;6.226;2023-02-21T07:25:32;99.47;;;26.30;;
76023;SDS011;64719;52.124;6.226;2023-02-21T07:27:59;104.78;;;28.05;;
76023;SDS011;64719;52.124;6.226;2023-02-21T07:30:26;98.15;;;25.98;;
76023;SDS011;64719;52.124;6.226;2023-02-21T07:32:52;105.60;;;25.98;;
76023;SDS011;64719;52.124;6.226;2023-02-21T07:35:19;105.88;;;27.17;;
76023;SDS011;64719;52.124;6.226;2023-02-21T07:37:45;101.35;;;25.55;;
76023;SDS011;64719;52.124;6.226;2023-02-21T07:40:13;102.93;;;24.00;;
76023;SDS011;64719;52.124;6.226;2023-02-21T07:42:40;97.10;;;24.45;;
76023;SDS011;64719;52.124;6.226;2023-02-21T07:47:35;93.82;;;23.55;;
76023;SDS011;64719;52.124;6.226;2023-02-21T07:50:01;91.80;;;24.35;;
76023;SDS011;64719;52.124;6.226;2023-02-21T07:52:28;91.30;;;25.13;;
76023;SDS011;64719;52.124;6.226;2023-02-21T07:54:55;89.43;;;24.30;;
76023;SDS011;64719;52.124;6.226;2023-02-21T07:57:23;91.03;;;24.25;;
76023;SDS011;64719;52.124;6.226;2023-02-21T07:59:49;86.30;;;23.70;;
76023;SDS011;64719;52.124;6.226;2023-02-21T08:02:16;78.97;;;22.90;;
76023;SDS011;64719;52.124;6.226;2023-02-21T08:04:42;81.97;;;22.35;;
76023;SDS011;64719;52.124;6.226;2023-02-21T08:07:09;78.95;;;22.17;;
76023;SDS011;64719;52.124;6.226;2023-02-21T08:09:36;84.85;;;22.55;;
76023;SDS011;64719;52.124;6.226;2023-02-21T08:12:04;84.85;;;23.20;;
76023;SDS011;64719;52.124;6.226;2023-02-21T08:14:32;76.57;;;21.33;;
76023;SDS011;64719;52.124;6.226;2023-02-21T08:16:59;77.18;;;21.92;;
76023;SDS011;64719;52.124;6.226;2023-02-21T08:19:25;77.55;;;22.20;;
76023;SDS011;64719;52.124;6.226;2023-02-21T08:21:52;67.18;;;20.27;;
76023;SDS011;64719;52.124;6.226;2023-02-21T08:24:18;76.97;;;22.98;;
76023;SDS011;64719;52.124;6.226;2023-02-21T08:26:45;64.57;;;20.42;;
76023;SDS011;64719;52.124;6.226;2023-02-21T08:29:11;69.22;;;21.00;;
76023;SDS011;64719;52.124;6.226;2023-02-21T08:31:43;65.10;;;20.30;;
76023;SDS011;64719;52.124;6.226;2023-02-21T08:34:09;61.92;;;20.48;;
76023;SDS011;64719;52.124;6.226;2023-02-21T08:36:37;63.30;;;20.48;;
76023;SDS011;64719;52.124;6.226;2023-02-21T08:39:06;60.47;;;20.20;;
76023;SDS011;64719;52.124;6.226;2023-02-21T08:44:02;56.70;;;19.52;;
76023;SDS011;64719;52.124;6.226;2023-02-21T08:46:29;59.88;;;19.02;;
76023;SDS011;64719;52.124;6.226;2023-02-21T08:48:57;59.20;;;19.30;;
76023;SDS011;64719;52.124;6.226;2023-02-21T08:51:24;64.07;;;20.25;;
76023;SDS011;64719;52.124;6.226;2023-02-21T08:53:51;66.60;;;20.58;;
76023;SDS011;64719;52.124;6.226;2023-02-21T08:56:17;61.45;;;20.45;;
76023;SDS011;64719;52.124;6.226;2023-02-21T08:58:44;67.80;;;21.17;;
76023;SDS011;64719;52.124;6.226;2023-02-21T09:01:11;64.22;;;19.38;;
76023;SDS011;64719;52.124;6.226;2023-02-21T09:03:37;58.83;;;18.95;;
76023;SDS011;64719;52.124;6.226;2023-02-21T09:06:05;65.82;;;20.05;;
76023;SDS011;64719;52.124;6.226;2023-02-21T09:11:00;61.53;;;17.80;;
76023;SDS011;64719;52.124;6.226;2023-02-21T09:13:26;65.28;;;20.38;;
76023;SDS011;64719;52.124;6.226;2023-02-21T09:15:54;63.67;;;18.70;;
76023;SDS011;64719;52.124;6.226;2023-02-21T09:18:21;69.88;;;20.42;;
76023;SDS011;64719;52.124;6.226;2023-02-21T09:20:48;64.07;;;18.27;;
76023;SDS011;64719;52.124;6.226;2023-02-21T09:23:19;58.90;;;18.13;;
76023;SDS011;64719;52.124;6.226;2023-02-21T09:25:47;63.75;;;19.83;;
76023;SDS011;64719;52.124;6.226;2023-02-21T09:28:14;66.50;;;18.77;;
76023;SDS011;64719;52.124;6.226;2023-02-21T09:30:41;68.75;;;20.27;;
76023;SDS011;64719;52.124;6.226;2023-02-21T09:33:08;66.80;;;19.63;;
76023;SDS011;64719;52.124;6.226;2023-02-21T09:35:35;63.28;;;20.13;;
76023;SDS011;64719;52.124;6.226;2023-02-21T09:38:02;65.35;;;19.45;;
76023;SDS011;64719;52.124;6.226;2023-02-21T09:40:33;62.38;;;20.40;;
76023;SDS011;64719;52.124;6.226;2023-02-21T09:43:06;59.92;;;19.50;;
76023;SDS011;64719;52.124;6.226;2023-02-21T09:45:39;65.40;;;18.05;;
76023;SDS011;64719;52.124;6.226;2023-02-21T09:48:07;60.58;;;18.83;;
76023;SDS011;64719;52.124;6.226;2023-02-21T09:50:39;66.97;;;20.63;;
76023;SDS011;64719;52.124;6.226;2023-02-21T09:53:07;64.97;;;19.38;;
76023;SDS011;64719;52.124;6.226;2023-02-21T09:55:38;65.43;;;18.92;;
76023;SDS011;64719;52.124;6.226;2023-02-21T09:58:08;64.07;;;19.50;;
76023;SDS011;64719;52.124;6.226;2023-02-21T10:00:37;57.17;;;18.40;;
76023;SDS011;64719;52.124;6.226;2023-02-21T10:03:09;58.05;;;19.83;;
76023;SDS011;64719;52.124;6.226;2023-02-21T10:05:52;57.80;;;17.83;;
76023;SDS011;64719;52.124;6.226;2023-02-21T10:08:29;54.00;;;18.95;;
76023;SDS011;64719;52.124;6.226;2023-02-21T10:11:09;56.80;;;18.27;;
76023;SDS011;64719;52.124;6.226;2023-02-21T10:13:49;55.72;;;18.92;;
76023;SDS011;64719;52.124;6.226;2023-02-21T10:16:23;57.10;;;19.25;;
76023;SDS011;64719;52.124;6.226;2023-02-21T10:18:55;55.35;;;18.65;;
76023;SDS011;64719;52.124;6.226;2023-02-21T10:21:29;53.35;;;19.60;;
76023;SDS011;64719;52.124;6.226;2023-02-21T10:24:01;57.95;;;18.25;;
76023;SDS011;64719;52.124;6.226;2023-02-21T10:26:30;55.10;;;19.10;;
76023;SDS011;64719;52.124;6.226;2023-02-21T10:29:02;56.15;;;18.90;;
76023;SDS011;64719;52.124;6.226;2023-02-21T10:31:38;50.60;;;17.67;;
76023;SDS011;64719;52.124;6.226;2023-02-21T10:34:20;60.97;;;18.73;;
76023;SDS011;64719;52.124;6.226;2023-02-21T10:36:50;47.75;;;16.63;;
76023;SDS011;64719;52.124;6.226;2023-02-21T10:39:19;52.92;;;17.67;;
76023;SDS011;64719;52.124;6.226;2023-02-21T10:41:51;54.08;;;19.67;;
76023;SDS011;64719;52.124;6.226;2023-02-21T10:44:18;48.15;;;17.77;;
76023;SDS011;64719;52.124;6.226;2023-02-21T10:46:52;53.42;;;16.35;;
76023;SDS011;64719;52.124;6.226;2023-02-21T10:49:27;47.20;;;15.40;;
76023;SDS011;64719;52.124;6.226;2023-02-21T10:52:04;45.08;;;15.48;;
76023;SDS011;64719;52.124;6.226;2023-02-21T10:54:34;48.97;;;15.38;;
76023;SDS011;64719;52.124;6.226;2023-02-21T10:57:03;51.33;;;16.27;;
76023;SDS011;64719;52.124;6.226;2023-02-21T10:59:32;45.92;;;13.93;;
76023;SDS011;64719;52.124;6.226;2023-02-21T11:02:00;37.50;;;14.07;;
76023;SDS011;64719;52.124;6.226;2023-02-21T11:04:29;43.92;;;13.70;;
76023;SDS011;64719;52.124;6.226;2023-02-21T11:07:00;38.53;;;13.23;;
76023;SDS011;64719;52.124;6.226;2023-02-21T11:09:35;46.47;;;14.52;;
76023;SDS011;64719;52.124;6.226;2023-02-21T11:12:15;39.63;;;13.13;;
76023;SDS011;64719;52.124;6.226;2023-02-21T11:15:02;38.75;;;14.07;;
76023;SDS011;64719;52.124;6.226;2023-02-21T11:17:31;39.00;;;14.02;;
76023;SDS011;64719;52.124;6.226;2023-02-21T11:20:01;42.80;;;14.63;;
76023;SDS011;64719;52.124;6.226;2023-02-21T11:22:36;38.63;;;12.98;;
76023;SDS011;64719;52.124;6.226;2023-02-21T11:25:07;37.40;;;13.48;;
76023;SDS011;64719;52.124;6.226;2023-02-21T11:27:56;36.42;;;13.73;;
76023;SDS011;64719;52.124;6.226;2023-02-21T11:30:24;40.10;;;15.05;;
76023;SDS011;64719;52.124;6.226;2023-02-21T11:32:52;42.15;;;14.30;;
76023;SDS011;64719;52.124;6.226;2023-02-21T11:35:23;42.72;;;14.00;;
76023;SDS011;64719;52.124;6.226;2023-02-21T11:37:53;40.38;;;14.05;;
76023;SDS011;64719;52.124;6.226;2023-02-21T11:40:26;47.28;;;15.13;;
76023;SDS011;64719;52.124;6.226;2023-02-21T11:43:10;45.40;;;14.73;;
76023;SDS011;64719;52.124;6.226;2023-02-21T11:45:43;47.65;;;14.48;;
76023;SDS011;64719;52.124;6.226;2023-02-21T11:48:23;44.05;;;15.48;;
76023;SDS011;64719;52.124;6.226;2023-02-21T11:50:57;38.13;;;13.55;;
76023;SDS011;64719;52.124;6.226;2023-02-21T11:53:27;44.30;;;15.52;;
76023;SDS011;64719;52.124;6.226;2023-02-21T11:55:58;43.67;;;14.38;;
76023;SDS011;64719;52.124;6.226;2023-02-21T11:58:33;43.63;;;14.35;;
76023;SDS011;64719;52.124;6.226;2023-02-21T12:01:08;43.65;;;16.10;;
76023;SDS011;64719;52.124;6.226;2023-02-21T12:03:46;46.47;;;14.48;;
76023;SDS011;64719;52.124;6.226;2023-02-21T12:06:25;45.65;;;14.98;;
76023;SDS011;64719;52.124;6.226;2023-02-21T12:08:58;44.67;;;15.18;;
76023;SDS011;64719;52.124;6.226;2023-02-21T12:11:43;47.20;;;15.07;;
76023;SDS011;64719;52.124;6.226;2023-02-21T12:14:21;38.40;;;13.32;;
76023;SDS011;64719;52.124;6.226;2023-02-21T12:20:07;45.47;;;15.20;;
76023;SDS011;64719;52.124;6.226;2023-02-21T12:22:54;39.72;;;14.35;;
76023;SDS011;64719;52.124;6.226;2023-02-21T12:25:28;38.03;;;14.02;;
76023;SDS011;64719;52.124;6.226;2023-02-21T12:28:04;42.20;;;14.55;;
76023;SDS011;64719;52.124;6.226;2023-02-21T12:30:50;41.53;;;14.32;;
76023;SDS011;64719;52.124;6.226;2023-02-21T12:33:31;39.25;;;14.13;;
76023;SDS011;64719;52.124;6.226;2023-02-21T12:39:13;47.15;;;15.73;;
76023;SDS011;64719;52.124;6.226;2023-02-21T12:41:54;42.45;;;14.40;;
76023;SDS011;64719;52.124;6.226;2023-02-21T12:44:37;41.80;;;14.00;;
76023;SDS011;64719;52.124;6.226;2023-02-21T12:47:14;42.05;;;13.73;;
76023;SDS011;64719;52.124;6.226;2023-02-21T12:49:45;39.25;;;14.40;;
76023;SDS011;64719;52.124;6.226;2023-02-21T12:52:20;43.88;;;14.90;;
76023;SDS011;64719;52.124;6.226;2023-02-21T12:54:52;40.25;;;15.18;;
76023;SDS011;64719;52.124;6.226;2023-02-21T12:57:26;40.58;;;14.50;;
76023;SDS011;64719;52.124;6.226;2023-02-21T13:00:00;41.35;;;14.90;;
76023;SDS011;64719;52.124;6.226;2023-02-21T13:02:35;36.47;;;13.07;;
76023;SDS011;64719;52.124;6.226;2023-02-21T13:05:12;36.35;;;11.95;;
76023;SDS011;64719;52.124;6.226;2023-02-21T13:07:42;36.88;;;13.48;;
76023;SDS011;64719;52.124;6.226;2023-02-21T13:10:14;35.45;;;12.18;;
76023;SDS011;64719;52.124;6.226;2023-02-21T13:12:46;31.90;;;12.02;;
76023;SDS011;64719;52.124;6.226;2023-02-21T13:15:19;32.30;;;12.35;;
76023;SDS011;64719;52.124;6.226;2023-02-21T13:17:51;34.05;;;11.85;;
76023;SDS011;64719;52.124;6.226;2023-02-21T13:28:11;16.67;;;6.47;;
76023;SDS011;64719;52.124;6.226;2023-02-21T13:30:44;16.65;;;5.82;;
76023;SDS011;64719;52.124;6.226;2023-02-21T13:33:25;17.13;;;6.63;;
76023;SDS011;64719;52.124;6.226;2023-02-21T13:35:56;15.00;;;5.85;;
76023;SDS011;64719;52.124;6.226;2023-02-21T13:38:25;14.35;;;6.57;;
76023;SDS011;64719;52.124;6.226;2023-02-21T13:41:01;12.45;;;5.45;;
76023;SDS011;64719;52.124;6.226;2023-02-21T13:43:31;14.82;;;5.88;;
76023;SDS011;64719;52.124;6.226;2023-02-21T13:51:50;14.88;;;5.63;;
76023;SDS011;64719;52.124;6.226;2023-02-21T13:54:20;14.57;;;6.05;;
76023;SDS011;64719;52.124;6.226;2023-02-21T13:56:48;12.93;;;5.18;;
76023;SDS011;64719;52.124;6.226;2023-02-21T13:59:32;16.17;;;6.53;;
76023;SDS011;64719;52.124;6.226;2023-02-21T14:04:57;16.50;;;6.70;;
76023;SDS011;64719;52.124;6.226;2023-02-21T14:10:35;13.30;;;5.55;;
76023;SDS011;64719;52.124;6.226;2023-02-21T14:13:06;15.88;;;5.72;;
76023;SDS011;64719;52.124;6.226;2023-02-21T14:15:45;12.95;;;5.38;;
76023;SDS011;64719;52.124;6.226;2023-02-21T14:18:15;15.65;;;5.75;;
76023;SDS011;64719;52.124;6.226;2023-02-21T14:20:46;17.27;;;5.25;;
76023;SDS011;64719;52.124;6.226;2023-02-21T14:23:15;15.23;;;6.30;;
76023;SDS011;64719;52.124;6.226;2023-02-21T14:25:53;14.60;;;5.95;;
76023;SDS011;64719;52.124;6.226;2023-02-21T14:34:19;14.65;;;5.55;;
76023;SDS011;64719;52.124;6.226;2023-02-21T14:36:49;11.13;;;5.18;;
76023;SDS011;64719;52.124;6.226;2023-02-21T14:39:19;13.55;;;5.15;;
76023;SDS011;64719;52.124;6.226;2023-02-21T14:41:56;13.10;;;5.25;;
76023;SDS011;64719;52.124;6.226;2023-02-21T14:44:35;14.98;;;6.70;;
76023;SDS011;64719;52.124;6.226;2023-02-21T14:47:23;15.52;;;6.13;;
76023;SDS011;64719;52.124;6.226;2023-02-21T14:50:06;14.02;;;5.50;;
76023;SDS011;64719;52.124;6.226;2023-02-21T14:53:06;15.27;;;6.45;;
76023;SDS011;64719;52.124;6.226;2023-02-21T14:55:51;16.00;;;6.80;;
76023;SDS011;64719;52.124;6.226;2023-02-21T14:58:34;14.70;;;6.32;;
76023;SDS011;64719;52.124;6.226;2023-02-21T15:01:15;16.92;;;6.95;;
76023;SDS011;64719;52.124;6.226;2023-02-21T15:04:01;18.60;;;7.03;;
76023;SDS011;64719;52.124;6.226;2023-02-21T15:06:35;19.55;;;7.30;;
76023;SDS011;64719;52.124;6.226;2023-02-21T15:09:10;17.17;;;7.25;;
76023;SDS011;64719;52.124;6.226;2023-02-21T15:11:39;17.20;;;7.47;;
76023;SDS011;64719;52.124;6.226;2023-02-21T15:14:10;17.40;;;6.57;;
76023;SDS011;64719;52.124;6.226;2023-02-21T15:16:38;18.77;;;7.90;;
76023;SDS011;64719;52.124;6.226;2023-02-21T15:19:18;19.60;;;8.10;;
76023;SDS011;64719;52.124;6.226;2023-02-21T15:21:49;18.15;;;7.18;;
76023;SDS011;64719;52.124;6.226;2023-02-21T15:24:32;17.45;;;6.22;;
76023;SDS011;64719;52.124;6.226;2023-02-21T15:27:08;18.60;;;6.82;;
76023;SDS011;64719;52.124;6.226;2023-02-21T15:29:35;16.52;;;6.55;;
76023;SDS011;64719;52.124;6.226;2023-02-21T15:32:02;19.10;;;7.68;;
76023;SDS011;64719;52.124;6.226;2023-02-21T15:34:31;19.95;;;7.57;;
76023;SDS011;64719;52.124;6.226;2023-02-21T15:37:11;15.45;;;6.38;;
76023;SDS011;64719;52.124;6.226;2023-02-21T15:39:42;17.83;;;7.07;;
76023;SDS011;64719;52.124;6.226;2023-02-21T15:42:15;18.90;;;7.28;;
76023;SDS011;64719;52.124;6.226;2023-02-21T15:44:44;19.38;;;7.82;;
76023;SDS011;64719;52.124;6.226;2023-02-21T15:47:14;20.42;;;8.02;;
76023;SDS011;64719;52.124;6.226;2023-02-21T15:49:44;19.70;;;7.72;;
76023;SDS011;64719;52.124;6.226;2023-02-21T15:52:25;18.92;;;7.25;;
76023;SDS011;64719;52.124;6.226;2023-02-21T15:57:40;15.57;;;5.82;;